Airport View

Enter AWOS ICAO identifier for current METAR.

ex. KFNL

KPKD 261153Z AUTO 00000KT 10SM CLR 16/12 A2993 RMK AO2 SLP132 70001 T01560122 10156 20122 50007

26 Jun 2019 12:34

Frequency: 110.6

Phone: 218-732-0920

Other Area AWOS: KY49 - KADC - KPWC - KSAZ

TAF KBJI 261121Z 2612/2712 24005KT P6SM SKC FM261800 25006KT P6SM FEW030 FEW250 TEMPO 2621/2623 25009G15KT P6SM FM270300 VRB04KT P6SM SCT040 BKN200